Time;durP1;ratioP1;P1;durP2;ratioP2;P2;SDS_P1;SDS_P2;PMS_P1;PMS_P2;Temp;Humidity;BMP_temperature;BMP_pressure;BME280_temperature;BME280_humidity;BME280_pressure;Samples;Min_cycle;Max_cycle;Signal;HPM_P1;HPM_P2
2022/10/30 00:00:09;;;;;;;18.60;8.05;;;;;;;14.36;100.00;101764.22;7380340;19;20423;-71
2022/10/30 00:02:39;;;;;;;14.13;7.65;;;;;;;14.25;100.00;101773.75;7380137;19;20015;-71
2022/10/30 00:05:10;;;;;;;16.48;7.47;;;;;;;14.18;100.00;101777.16;7377544;19;20051;-71
2022/10/30 00:07:42;;;;;;;22.95;9.00;;;;;;;14.11;100.00;101776.19;7383907;19;20021;-72
2022/10/30 00:10:12;;;;;;;15.30;7.97;;;;;;;14.05;100.00;101765.56;7382234;19;20010;-71
2022/10/30 00:12:41;;;;;;;15.73;8.23;;;;;;;13.97;100.00;101770.72;7383507;19;20025;-71
2022/10/30 00:15:12;;;;;;;16.85;9.32;;;;;;;13.98;100.00;101767.22;7382990;19;20013;-71
2022/10/30 00:17:42;;;;;;;17.75;7.68;;;;;;;13.96;100.00;101766.31;7383909;19;20829;-71
2022/10/30 00:20:12;;;;;;;18.08;8.85;;;;;;;13.94;100.00;101768.06;7381442;19;20042;-71
2022/10/30 00:22:44;;;;;;;18.15;8.93;;;;;;;13.97;100.00;101775.13;7381074;19;20018;-71
2022/10/30 00:25:14;;;;;;;16.48;8.00;;;;;;;13.92;100.00;101774.16;7382619;19;20121;-72
2022/10/30 00:27:44;;;;;;;15.10;8.07;;;;;;;13.93;100.00;101776.81;7384666;19;20514;-71
2022/10/30 00:30:14;;;;;;;16.75;9.02;;;;;;;13.86;100.00;101772.31;7378420;19;20042;-72
2022/10/30 00:32:44;;;;;;;22.10;10.20;;;;;;;13.82;100.00;101767.88;7380709;19;20019;-71
2022/10/30 00:35:14;;;;;;;20.30;9.30;;;;;;;13.75;100.00;101773.91;7381626;19;20029;-72
2022/10/30 00:37:46;;;;;;;21.02;8.98;;;;;;;13.67;100.00;101781.72;7375765;19;20018;-73
2022/10/30 00:40:17;;;;;;;20.25;8.77;;;;;;;13.61;100.00;101778.09;7381156;19;20021;-72
2022/10/30 00:42:47;;;;;;;16.55;8.43;;;;;;;13.56;100.00;101783.28;7377148;19;20014;-71
2022/10/30 00:45:19;;;;;;;21.13;8.88;;;;;;;13.52;100.00;101772.69;7378248;19;20459;-71
2022/10/30 00:47:54;;;;;;;14.85;8.50;;;;;;;13.42;100.00;101776.94;7379083;19;20046;-71
2022/10/30 00:50:28;;;;;;;18.45;8.80;;;;;;;13.31;100.00;101779.38;7381823;19;20055;-74
2022/10/30 00:53:06;;;;;;;18.75;9.15;;;;;;;13.26;100.00;101778.44;7381275;19;20090;-74
2022/10/30 00:55:39;;;;;;;23.42;9.75;;;;;;;13.25;100.00;101778.41;7378907;19;20010;-73
2022/10/30 00:58:15;;;;;;;19.27;9.38;;;;;;;13.14;100.00;101778.19;7377034;19;20015;-74
2022/10/30 01:00:50;;;;;;;19.83;8.88;;;;;;;13.07;100.00;101778.94;7380938;19;20029;-74
2022/10/30 01:03:22;;;;;;;21.33;9.88;;;;;;;13.02;100.00;101785.84;7382987;19;20468;-74
2022/10/30 01:05:56;;;;;;;16.65;8.45;;;;;;;12.96;100.00;101793.63;7377232;19;20017;-74
2022/10/30 01:08:29;;;;;;;16.52;8.48;;;;;;;12.94;100.00;101792.72;7382527;19;20006;-74
2022/10/30 01:11:00;;;;;;;17.63;8.88;;;;;;;12.95;100.00;101790.13;7378462;19;20006;-75
2022/10/30 01:13:31;;;;;;;16.52;8.88;;;;;;;12.89;100.00;101795.28;7379905;19;20045;-72
2022/10/30 01:16:21;;;;;;;18.23;9.02;;;;;;;12.83;100.00;101799.53;7378847;19;20033;-71
2022/10/30 01:19:00;;;;;;;18.60;8.68;;;;;;;12.85;100.00;101795.19;7377035;19;20018;-72
2022/10/30 01:21:43;;;;;;;18.33;8.63;;;;;;;12.84;100.00;101790.78;7380606;19;20014;-73
2022/10/30 01:24:30;;;;;;;17.50;9.68;;;;;;;12.83;100.00;101799.53;7380558;19;20015;-71
2022/10/30 01:27:13;;;;;;;17.30;8.73;;;;;;;12.81;100.00;101790.72;7381133;19;20015;-71
2022/10/30 01:29:56;;;;;;;19.02;8.68;;;;;;;12.80;100.00;101794.22;7380229;19;20134;-72
2022/10/30 01:32:39;;;;;;;23.52;9.60;;;;;;;12.72;100.00;101780.91;7379151;19;20010;-72
2022/10/30 01:35:16;;;;;;;18.60;8.85;;;;;;;12.66;100.00;101793.94;7381064;19;20006;-74
2022/10/30 01:37:54;;;;;;;18.25;9.07;;;;;;;12.62;100.00;101795.63;7377954;19;20038;-74
2022/10/30 01:40:26;;;;;;;19.40;9.73;;;;;;;12.56;100.00;101795.50;7378123;19;20038;-75
2022/10/30 01:42:57;;;;;;;19.20;8.68;;;;;;;12.51;100.00;101797.16;7373173;19;20015;-74
2022/10/30 01:45:40;;;;;;;16.98;8.75;;;;;;;12.50;100.00;101798.00;7377923;19;20070;-74
2022/10/30 01:48:30;;;;;;;17.00;8.75;;;;;;;12.50;100.00;101805.00;7376883;19;20028;-74
2022/10/30 01:51:06;;;;;;;16.33;8.68;;;;;;;12.44;100.00;101797.91;7381366;19;20813;-74
2022/10/30 01:53:47;;;;;;;22.15;9.18;;;;;;;12.42;100.00;101799.63;7375794;19;20026;-74
2022/10/30 01:56:33;;;;;;;15.93;9.18;;;;;;;12.41;100.00;101801.34;7376677;19;20011;-74
2022/10/30 01:59:11;;;;;;;18.35;8.52;;;;;;;12.38;100.00;101797.78;7376568;19;20037;-74
2022/10/30 02:01:41;;;;;;;18.40;9.15;;;;;;;12.36;100.00;101802.13;7374953;19;20018;-74
2022/10/30 02:04:13;;;;;;;18.48;8.63;;;;;;;12.33;100.00;101802.94;7374999;19;20011;-74
2022/10/30 02:06:43;;;;;;;26.23;10.48;;;;;;;12.32;100.00;101795.91;7378505;19;20232;-71
2022/10/30 02:09:16;;;;;;;16.98;8.70;;;;;;;12.30;100.00;101801.97;7373502;19;20024;-72
2022/10/30 02:11:49;;;;;;;20.20;8.85;;;;;;;12.27;100.00;101797.53;7378173;19;20019;-72
2022/10/30 02:14:25;;;;;;;19.70;8.88;;;;;;;12.24;100.00;101801.84;7375960;19;20026;-74
2022/10/30 02:16:59;;;;;;;14.80;8.25;;;;;;;12.23;100.00;101786.94;7378060;19;20015;-74
2022/10/30 02:19:29;;;;;;;17.75;8.80;;;;;;;12.26;100.00;101793.13;7377596;19;20010;-74
2022/10/30 02:22:01;;;;;;;19.70;9.45;;;;;;;12.33;100.00;101802.06;7373128;19;20010;-74
2022/10/30 02:24:32;;;;;;;16.98;8.50;;;;;;;12.31;100.00;101801.13;7378440;19;20048;-74
2022/10/30 02:27:02;;;;;;;18.75;8.85;;;;;;;12.29;100.00;101802.84;7377489;19;20015;-74
2022/10/30 02:29:31;;;;;;;22.17;9.82;;;;;;;12.28;100.00;101808.97;7374863;19;20011;-75
2022/10/30 02:32:01;;;;;;;19.30;10.27;;;;;;;12.26;100.00;101808.03;7376129;19;20017;-74
2022/10/30 02:34:31;;;;;;;22.52;9.52;;;;;;;12.26;100.00;101815.94;7375776;19;20018;-75
2022/10/30 02:37:03;;;;;;;17.83;9.43;;;;;;;12.25;100.00;101814.16;7375458;19;20026;-74
2022/10/30 02:39:33;;;;;;;19.98;9.90;;;;;;;12.28;100.00;101817.75;7376207;19;20015;-74
2022/10/30 02:42:04;;;;;;;21.98;10.38;;;;;;;12.53;100.00;101811.22;7377169;19;20055;-74
2022/10/30 02:44:34;;;;;;;22.15;11.45;;;;;;;12.59;100.00;101816.59;7379552;19;20010;-74
2022/10/30 02:47:03;;;;;;;24.50;11.55;;;;;;;12.81;100.00;101820.56;7376830;19;20033;-74
2022/10/30 02:49:33;;;;;;;21.50;10.95;;;;;;;12.67;100.00;101830.81;7373980;19;20017;-74
2022/10/30 02:52:08;;;;;;;17.92;9.45;;;;;;;12.62;100.00;101826.31;7376951;19;20018;-75
2022/10/30 02:54:38;;;;;;;19.65;9.65;;;;;;;12.53;100.00;101812.97;7375551;19;20447;-74
2022/10/30 02:57:07;;;;;;;18.20;9.88;;;;;;;12.44;100.00;101813.69;7375366;19;20010;-74
2022/10/30 02:59:37;;;;;;;19.08;8.98;;;;;;;12.37;100.00;101819.69;7375253;19;20014;-76
2022/10/30 03:02:06;;;;;;;20.40;9.95;;;;;;;12.30;100.00;101812.50;7377716;19;20022;-75
2022/10/30 03:04:36;;;;;;;17.85;9.63;;;;;;;12.23;100.00;101816.75;7374387;19;20014;-75
2022/10/30 03:07:08;;;;;;;20.55;9.85;;;;;;;12.17;100.00;101808.72;7378675;19;20018;-74
2022/10/30 03:09:38;;;;;;;21.05;10.75;;;;;;;12.13;100.00;101809.50;7381490;19;20082;-74
2022/10/30 03:12:08;;;;;;;17.05;9.05;;;;;;;12.09;100.00;101807.66;7380569;19;20471;-74
2022/10/30 03:14:38;;;;;;;21.30;9.95;;;;;;;12.07;100.00;101804.09;7386295;19;20046;-73
2022/10/30 03:17:07;;;;;;;22.58;12.10;;;;;;;12.09;100.00;101792.78;7379410;19;20014;-74
2022/10/30 03:19:37;;;;;;;24.73;10.27;;;;;;;12.16;100.00;101798.16;7384804;19;20418;-74
2022/10/30 03:22:09;;;;;;;24.67;10.77;;;;;;;12.17;100.00;101802.56;7382691;19;20014;-76
2022/10/30 03:24:39;;;;;;;20.67;10.27;;;;;;;12.12;100.00;101799.84;7378933;19;20014;-74
2022/10/30 03:27:09;;;;;;;22.73;10.30;;;;;;;12.05;100.00;101806.69;7381724;19;20007;-74
2022/10/30 03:29:39;;;;;;;21.08;10.05;;;;;;;11.98;100.00;101810.03;7383716;19;20022;-74
2022/10/30 03:32:10;;;;;;;21.05;10.02;;;;;;;11.91;100.00;101802.88;7387337;19;20041;-75
2022/10/30 03:34:40;;;;;;;15.38;9.07;;;;;;;11.87;100.00;101805.41;7381422;19;20583;-74
2022/10/30 03:37:13;;;;;;;18.48;9.18;;;;;;;11.81;100.00;101807.88;7383995;19;20018;-74
2022/10/30 03:39:42;;;;;;;20.10;9.95;;;;;;;11.76;100.00;101805.09;7381439;19;20011;-75
2022/10/30 03:42:12;;;;;;;23.88;10.27;;;;;;;11.74;100.00;101804.19;7380937;19;20022;-74
2022/10/30 03:44:42;;;;;;;23.70;10.32;;;;;;;11.68;100.00;101799.66;7377960;19;20474;-75
2022/10/30 03:47:11;;;;;;;18.27;8.80;;;;;;;11.66;100.00;101804.00;7378695;19;20026;-74
2022/10/30 03:49:41;;;;;;;19.58;9.95;;;;;;;11.64;100.00;101807.44;7380659;19;20018;-74
2022/10/30 03:52:13;;;;;;;21.88;10.25;;;;;;;11.66;100.00;101811.88;7383924;19;20007;-75
2022/10/30 03:54:43;;;;;;;17.85;9.85;;;;;;;11.64;100.00;101807.44;7383652;19;20022;-74
2022/10/30 03:57:12;;;;;;;19.33;10.25;;;;;;;11.59;100.00;101815.22;7383997;19;20036;-75
2022/10/30 03:59:42;;;;;;;23.00;10.70;;;;;;;11.59;100.00;101815.22;7377706;19;20025;-72
2022/10/30 04:02:11;;;;;;;20.98;10.32;;;;;;;11.55;100.00;101815.09;7377193;19;20021;-72
2022/10/30 04:04:41;;;;;;;14.32;8.95;;;;;;;11.50;100.00;101806.22;7376848;19;20026;-72
2022/10/30 04:07:14;;;;;;;19.05;9.02;;;;;;;11.43;100.00;101813.97;7380779;19;20014;-74
2022/10/30 04:09:43;;;;;;;21.83;10.00;;;;;;;11.38;100.00;101817.31;7381285;19;20022;-74
2022/10/30 04:12:13;;;;;;;18.83;9.75;;;;;;;11.39;100.00;101813.84;7382264;19;20011;-74
2022/10/30 04:14:42;;;;;;;19.02;9.48;;;;;;;11.32;100.00;101817.16;7379172;19;20029;-73
2022/10/30 04:17:12;;;;;;;20.77;9.00;;;;;;;11.26;100.00;101815.28;7379764;19;20037;-74
2022/10/30 04:19:42;;;;;;;17.48;9.23;;;;;;;11.24;100.00;101821.34;7380922;19;20029;-73
2022/10/30 04:22:14;;;;;;;21.25;10.57;;;;;;;11.22;100.00;101813.41;7381208;19;20021;-74
2022/10/30 04:24:44;;;;;;;24.67;10.73;;;;;;;11.32;100.00;101812.81;7381247;19;20087;-72
2022/10/30 04:27:14;;;;;;;25.85;10.60;;;;;;;11.48;100.00;101807.06;7378902;19;20022;-71
2022/10/30 04:29:44;;;;;;;18.77;9.93;;;;;;;11.51;100.00;101815.88;7379849;19;20018;-72
2022/10/30 04:32:14;;;;;;;21.35;11.05;;;;;;;11.51;100.00;101801.00;7380169;19;20102;-71
2022/10/30 04:34:43;;;;;;;20.85;10.45;;;;;;;11.56;100.00;101802.00;7376741;19;20010;-71
2022/10/30 04:37:16;;;;;;;18.60;10.27;;;;;;;11.60;100.00;101800.34;7381883;19;20106;-71
2022/10/30 04:39:47;;;;;;;20.80;10.20;;;;;;;11.63;100.00;101792.53;7381755;19;20655;-71
2022/10/30 04:42:17;;;;;;;24.58;10.48;;;;;;;11.65;100.00;101786.47;7378650;19;20451;-71
2022/10/30 04:44:46;;;;;;;21.08;11.20;;;;;;;11.70;100.00;101787.44;7381095;19;20011;-71
2022/10/30 04:47:17;;;;;;;22.80;11.20;;;;;;;11.70;100.00;101776.94;7379376;19;20078;-71
2022/10/30 04:49:46;;;;;;;18.85;9.98;;;;;;;11.74;100.00;101777.91;7381093;19;20026;-72
2022/10/30 04:52:19;;;;;;;20.52;10.15;;;;;;;11.74;100.00;101770.00;7380765;19;20134;-71
2022/10/30 04:54:49;;;;;;;24.08;11.57;;;;;;;11.75;100.00;101774.41;7383529;19;20014;-75
2022/10/30 04:57:19;;;;;;;24.08;10.90;;;;;;;11.72;100.00;101779.59;7377072;19;20018;-74
2022/10/30 04:59:48;;;;;;;23.00;11.50;;;;;;;11.67;100.00;101778.59;7379932;19;20451;-74
2022/10/30 05:02:19;;;;;;;27.50;11.00;;;;;;;11.60;100.00;101785.47;7379215;19;20014;-74
2022/10/30 05:04:49;;;;;;;22.42;10.70;;;;;;;11.60;100.00;101785.47;7380970;19;20042;-74
2022/10/30 05:07:22;;;;;;;18.52;10.30;;;;;;;11.58;100.00;101786.28;7376880;19;20018;-74
2022/10/30 05:09:52;;;;;;;19.75;10.32;;;;;;;11.60;100.00;101789.81;7382284;19;20030;-74
2022/10/30 05:12:22;;;;;;;25.60;11.07;;;;;;;11.67;100.00;101792.63;7379939;19;20022;-73
2022/10/30 05:14:52;;;;;;;26.65;12.70;;;;;;;11.82;100.00;101799.13;7379896;19;20011;-74
2022/10/30 05:17:22;;;;;;;22.85;12.05;;;;;;;11.78;100.00;101804.31;7379170;19;20031;-76
2022/10/30 05:19:53;;;;;;;26.35;12.10;;;;;;;11.82;100.00;101792.16;7379782;19;20323;-74
2022/10/30 05:22:25;;;;;;;24.65;10.85;;;;;;;11.73;100.00;101786.63;7377555;19;20564;-74
2022/10/30 05:24:55;;;;;;;26.35;12.00;;;;;;;11.76;100.00;101786.72;7376885;19;20011;-74
2022/10/30 05:27:25;;;;;;;24.52;10.65;;;;;;;11.79;100.00;101790.34;7376856;19;20014;-77
2022/10/30 05:29:54;;;;;;;25.15;12.30;;;;;;;11.84;100.00;101779.94;7376779;19;20022;-75
2022/10/30 05:32:24;;;;;;;24.95;12.48;;;;;;;11.92;100.00;101785.34;7378573;19;20015;-74
2022/10/30 05:34:54;;;;;;;23.23;10.98;;;;;;;11.90;100.00;101790.59;7378457;19;20019;-74
2022/10/30 05:37:26;;;;;;;28.00;11.65;;;;;;;11.91;100.00;101791.47;7380383;19;20025;-74
2022/10/30 05:39:56;;;;;;;26.83;12.77;;;;;;;12.04;100.00;101791.78;7374596;19;20245;-74
2022/10/30 05:42:25;;;;;;;25.50;13.07;;;;;;;12.01;100.00;101782.94;7376188;19;20006;-74
2022/10/30 05:44:55;;;;;;;26.45;12.43;;;;;;;12.02;100.00;101788.22;7379603;19;20136;-73
2022/10/30 05:47:30;;;;;;;31.70;13.48;;;;;;;11.99;100.00;101803.94;7378124;19;20015;-71
2022/10/30 05:50:00;;;;;;;25.23;12.82;;;;;;;12.03;100.00;101804.91;7376384;19;20018;-71
2022/10/30 05:52:32;;;;;;;32.20;13.77;;;;;;;12.02;100.00;101811.00;7375744;19;20090;-72
2022/10/30 05:55:02;;;;;;;28.48;11.80;;;;;;;11.96;100.00;101817.00;7377869;19;20022;-73
2022/10/30 05:57:33;;;;;;;26.92;12.63;;;;;;;12.00;100.00;101816.22;7378985;19;20010;-71
2022/10/30 06:00:03;;;;;;;24.63;13.32;;;;;;;12.02;100.00;101817.16;7376749;19;20019;-71
2022/10/30 06:02:32;;;;;;;30.30;13.20;;;;;;;12.03;100.00;101818.03;7379012;19;20015;-71
2022/10/30 06:05:02;;;;;;;24.20;11.95;;;;;;;11.99;100.00;101817.06;7378937;19;20520;-71
2022/10/30 06:07:34;;;;;;;26.83;12.45;;;;;;;11.95;100.00;101809.97;7376100;19;20474;-71
2022/10/30 06:10:05;;;;;;;25.73;12.00;;;;;;;11.98;100.00;101810.03;7376751;19;20086;-71
2022/10/30 06:12:34;;;;;;;27.98;13.43;;;;;;;11.97;100.00;101807.38;7374510;19;20011;-72
2022/10/30 06:15:04;;;;;;;26.63;11.80;;;;;;;12.02;100.00;101806.63;7376941;19;20017;-71
2022/10/30 06:17:34;;;;;;;26.40;12.75;;;;;;;12.04;100.00;101810.19;7376435;19;20029;-74
2022/10/30 06:20:04;;;;;;;26.05;11.70;;;;;;;12.02;100.00;101811.00;7377471;19;20456;-74
2022/10/30 06:22:36;;;;;;;31.88;14.70;;;;;;;11.99;100.00;101822.34;7373845;19;20023;-75
2022/10/30 06:25:07;;;;;;;27.70;14.00;;;;;;;12.05;100.00;101813.72;7376564;19;20221;-74
2022/10/30 06:27:37;;;;;;;27.92;12.52;;;;;;;12.01;100.00;101815.38;7377808;19;20017;-74
2022/10/30 06:30:07;;;;;;;32.40;14.48;;;;;;;12.10;100.00;101819.94;7374891;19;20042;-74
2022/10/30 06:32:37;;;;;;;37.55;14.23;;;;;;;12.13;100.00;101816.50;7378147;19;20056;-74
2022/10/30 06:35:07;;;;;;;22.75;11.93;;;;;;;12.13;100.00;101820.03;7376002;19;20078;-74
2022/10/30 06:37:40;;;;;;;31.58;13.82;;;;;;;12.14;100.00;101821.81;7374392;19;20019;-73
2022/10/30 06:40:12;;;;;;;29.38;12.80;;;;;;;12.12;100.00;101807.72;7374729;19;20476;-73
2022/10/30 06:42:46;;;;;;;25.33;12.68;;;;;;;12.12;100.00;101810.34;7383895;19;20685;-74
2022/10/30 06:45:17;;;;;;;26.08;13.25;;;;;;;12.18;100.00;101801.72;7384218;19;20018;-74
2022/10/30 06:47:47;;;;;;;27.15;12.30;;;;;;;12.14;100.00;101803.41;7382274;19;20492;-73
2022/10/30 06:50:20;;;;;;;27.27;12.32;;;;;;;12.17;100.00;101797.31;7382014;19;20044;-73
2022/10/30 06:52:54;;;;;;;25.03;12.20;;;;;;;12.16;100.00;101803.44;7380064;19;20025;-72
2022/10/30 06:55:23;;;;;;;;;;;;;;;12.16;100.00;101800.78;7382086;19;20019;-72
2022/10/30 06:57:57;;;;;;;22.00;10.98;;;;;;;12.21;100.00;101796.53;7381504;19;20631;-75
2022/10/30 07:00:27;;;;;;;29.95;12.77;;;;;;;12.25;100.00;101787.84;7380483;19;20013;-74
2022/10/30 07:02:58;;;;;;;28.45;12.68;;;;;;;12.28;100.00;101790.53;7384203;19;20014;-72
2022/10/30 07:05:29;;;;;;;32.28;13.27;;;;;;;12.31;100.00;101790.59;7381251;19;20410;-72
2022/10/30 07:08:02;;;;;;;24.05;11.93;;;;;;;12.36;100.00;101791.59;7385879;19;20023;-72
2022/10/30 07:10:31;;;;;;;24.98;12.90;;;;;;;12.40;100.00;101790.81;7383675;19;20006;-72
2022/10/30 07:13:01;;;;;;;33.42;14.35;;;;;;;12.46;100.00;101801.47;7382851;19;20770;-72
2022/10/30 07:15:31;;;;;;;32.83;13.23;;;;;;;12.49;100.00;101801.47;7381427;19;20038;-72
2022/10/30 07:18:03;;;;;;;26.80;14.45;;;;;;;12.56;100.00;101794.59;7381591;19;20034;-72
2022/10/30 07:20:34;;;;;;;31.85;14.68;;;;;;;12.63;100.00;101797.41;7384468;19;20018;-73
2022/10/30 07:23:06;;;;;;;29.48;15.02;;;;;;;12.72;100.00;101794.94;7383183;19;20037;-72
2022/10/30 07:25:36;;;;;;;29.75;15.32;;;;;;;12.76;100.00;101802.03;7385065;19;20042;-72
2022/10/30 07:28:06;;;;;;;26.88;12.55;;;;;;;12.77;100.00;101811.72;7384016;19;20021;-73
2022/10/30 07:30:36;;;;;;;27.42;12.40;;;;;;;12.79;100.00;101803.84;7382888;19;20018;-72
2022/10/30 07:33:08;;;;;;;28.55;14.18;;;;;;;12.83;100.00;101807.44;7384329;19;20010;-72
2022/10/30 07:35:38;;;;;;;30.98;12.65;;;;;;;12.86;100.00;101811.00;7383894;19;20011;-71
2022/10/30 07:38:13;;;;;;;28.95;14.43;;;;;;;12.90;100.00;101812.84;7380250;19;20022;-73
2022/10/30 07:40:42;;;;;;;29.30;13.68;;;;;;;12.93;100.00;101815.53;7381877;19;20656;-72
2022/10/30 07:43:14;;;;;;;30.23;13.15;;;;;;;13.00;100.00;101814.78;7382363;19;20050;-73
2022/10/30 07:45:46;;;;;;;29.73;13.38;;;;;;;13.07;100.00;101810.53;7382153;19;20813;-72
2022/10/30 07:48:16;;;;;;;22.27;13.38;;;;;;;13.12;100.00;101808.88;7379679;19;20015;-72
2022/10/30 07:50:45;;;;;;;28.35;15.10;;;;;;;13.22;100.00;101815.22;7381467;19;20022;-71
2022/10/30 07:53:18;;;;;;;28.85;15.07;;;;;;;13.34;100.00;101816.31;7377220;19;20021;-72
2022/10/30 07:55:48;;;;;;;30.27;14.55;;;;;;;13.42;100.00;101808.56;7379381;19;20022;-72
2022/10/30 08:01:44;;;;;;;29.67;15.35;;;;;;;13.57;100.00;101803.50;7380324;19;20002;-72
2022/10/30 08:04:14;;;;;;;34.38;14.73;;;;;;;13.63;100.00;101813.25;7377555;19;20055;-73
2022/10/30 08:06:43;;;;;;;29.00;13.80;;;;;;;13.67;100.00;101823.00;7377385;19;20014;-72
2022/10/30 08:09:16;;;;;;;25.50;14.35;;;;;;;13.70;100.00;101816.03;7377813;19;20014;-72
2022/10/30 08:11:46;;;;;;;29.67;14.03;;;;;;;13.77;100.00;101821.41;7375452;19;20022;-72
2022/10/30 08:14:16;;;;;;;27.63;13.70;;;;;;;13.83;100.00;101825.00;7376419;19;20292;-72
2022/10/30 08:16:46;;;;;;;28.20;14.70;;;;;;;13.89;100.00;101827.75;7377828;19;20622;-72
2022/10/30 08:19:16;;;;;;;32.72;15.07;;;;;;;13.95;100.00;101834.88;7376528;19;20018;-72
2022/10/30 08:21:46;;;;;;;27.52;14.05;;;;;;;14.03;100.00;101828.84;7381270;19;20014;-72
2022/10/30 08:24:18;;;;;;;30.50;14.55;;;;;;;14.12;100.00;101837.75;7378722;19;20025;-72
2022/10/30 08:26:48;;;;;;;31.77;14.95;;;;;;;14.19;100.00;101832.59;7378262;19;20019;-72
2022/10/30 08:29:18;;;;;;;27.27;14.00;;;;;;;14.28;100.00;101843.28;7374885;19;20015;-72
2022/10/30 08:31:50;;;;;;;32.10;14.02;;;;;;;14.37;100.00;101832.84;7373715;19;20014;-72
2022/10/30 08:34:20;;;;;;;31.05;14.73;;;;;;;14.48;100.00;101834.78;7372422;19;20022;-71
2022/10/30 08:36:50;;;;;;;30.60;15.05;;;;;;;14.55;100.00;101829.59;7373786;19;20035;-72
2022/10/30 08:39:23;;;;;;;24.85;13.38;;;;;;;14.60;100.00;101819.06;7374690;19;20015;-71
2022/10/30 08:41:52;;;;;;;29.50;15.00;;;;;;;14.67;100.00;101821.78;7374900;19;20018;-72
2022/10/30 08:44:23;;;;;;;28.73;14.18;;;;;;;14.71;100.00;101817.44;7378344;19;20027;-72
2022/10/30 08:46:52;;;;;;;27.60;14.25;;;;;;;14.77;100.00;101821.91;7376040;19;20055;-72
2022/10/30 08:49:22;;;;;;;31.17;14.70;;;;;;;14.80;100.00;101827.22;7370957;19;20030;-71
2022/10/30 08:51:52;;;;;;;26.80;14.60;;;;;;;14.84;100.00;101827.28;7378983;19;20021;-72
2022/10/30 08:54:24;;;;;;;30.17;14.75;;;;;;;14.86;100.00;101828.19;7374923;19;20015;-72
2022/10/30 08:56:54;;;;;;;27.80;13.90;;;;;;;14.87;100.00;101814.09;7379364;19;20015;-72
2022/10/30 08:59:24;;;;;;;30.92;13.80;;;;;;;14.92;100.00;101824.72;7378365;19;20010;-72
2022/10/30 09:01:53;;;;;;;29.20;15.10;;;;;;;14.97;100.00;101828.31;7376633;19;20110;-72
2022/10/30 09:04:23;;;;;;;28.85;15.52;;;;;;;15.03;100.00;101829.25;7374994;19;20014;-71
2022/10/30 09:06:53;;;;;;;24.35;14.00;;;;;;;15.13;100.00;101840.81;7377702;19;20010;-72
2022/10/30 09:09:29;;;;;;;30.20;14.20;;;;;;;15.21;100.00;101831.19;7373515;19;20017;-72
2022/10/30 09:11:59;;;;;;;31.80;14.32;;;;;;;15.31;100.00;101842.75;7377683;19;20042;-72
2022/10/30 09:14:28;;;;;;;30.27;15.73;;;;;;;15.40;100.00;101837.56;7379524;19;20015;-72
2022/10/30 09:16:58;;;;;;;30.13;15.57;;;;;;;15.49;100.00;101831.47;7374070;19;20034;-72
2022/10/30 09:19:29;;;;;;;26.52;13.98;;;;;;;15.57;100.00;101829.81;7370550;19;20018;-71
2022/10/30 09:26:33;;;;;;;29.48;14.82;;;;;;;15.84;100.00;101840.56;7371065;19;20007;-73
2022/10/30 10:28:44;;;;;;;24.77;10.85;;;;;;;18.52;100.00;101819.88;7371861;19;20019;-79
2022/10/30 10:31:26;;;;;;;20.63;10.43;;;;;;;18.64;100.00;101808.38;7375801;19;20504;-79
2022/10/30 10:34:27;;;;;;;19.95;10.63;;;;;;;18.68;100.00;101811.88;7376277;19;20022;-78
2022/10/30 10:37:07;;;;;;;20.58;10.85;;;;;;;18.71;100.00;101799.47;7375877;19;20093;-83
2022/10/30 10:39:57;;;;;;;21.33;10.23;;;;;;;18.86;100.00;101806.44;7380236;19;20011;-79
2022/10/30 10:42:36;;;;;;;19.65;9.50;;;;;;;19.00;100.00;101812.56;7377703;19;20022;-79
2022/10/30 10:45:22;;;;;;;20.02;9.93;;;;;;;19.03;100.00;101807.22;7376280;19;20098;-80
2022/10/30 10:48:13;;;;;;;18.75;10.32;;;;;;;19.03;100.00;101806.34;7377255;19;20019;-81
2022/10/30 10:50:51;;;;;;;19.73;10.30;;;;;;;19.10;100.00;101803.66;7375539;19;20018;-83
2022/10/30 10:53:29;;;;;;;21.92;10.35;;;;;;;19.08;100.00;101808.09;7378584;19;20019;-80
2022/10/30 10:56:02;;;;;;;18.25;9.68;;;;;;;19.20;100.00;101789.41;7377490;19;20015;-80
2022/10/30 10:58:37;;;;;;;21.17;9.45;;;;;;;19.27;100.00;101801.75;7376009;19;20007;-81
2022/10/30 11:01:14;;;;;;;19.05;10.23;;;;;;;19.27;100.00;101790.22;7384187;19;20019;-80
2022/10/30 11:03:54;;;;;;;20.20;10.15;;;;;;;19.24;100.00;101791.13;7383108;19;20015;-80
2022/10/30 11:06:27;;;;;;;17.65;9.45;;;;;;;19.24;100.00;101792.91;7384198;19;20019;-81
2022/10/30 11:09:15;;;;;;;18.65;9.38;;;;;;;19.28;100.00;101790.22;7385203;19;20018;-81
2022/10/30 11:11:45;;;;;;;17.63;9.90;;;;;;;19.26;100.00;101786.69;7379685;19;20022;-79
2022/10/30 11:14:18;;;;;;;18.38;9.48;;;;;;;19.23;100.00;101780.50;7381079;19;20014;-79
2022/10/30 11:17:06;;;;;;;22.08;10.98;;;;;;;19.32;100.00;101782.22;7380289;19;20086;-79
2022/10/30 11:19:36;;;;;;;21.17;10.40;;;;;;;19.28;100.00;101776.91;7377559;19;20574;-79
2022/10/30 11:22:20;;;;;;;16.50;9.23;;;;;;;19.41;100.00;101784.81;7383239;19;20040;-80
2022/10/30 11:24:52;;;;;;;21.15;8.70;;;;;;;19.52;100.00;101782.97;7377213;19;20353;-81
2022/10/30 11:27:29;;;;;;;21.35;9.30;;;;;;;19.57;100.00;101782.03;7375597;19;20098;-80
2022/10/30 11:30:01;;;;;;;18.73;9.98;;;;;;;19.67;100.00;101774.84;7378753;19;20585;-81
2022/10/30 11:32:33;;;;;;;21.85;10.60;;;;;;;19.55;100.00;101780.28;7378709;19;20007;-81
2022/10/30 11:35:12;;;;;;;22.10;10.05;;;;;;;19.45;100.00;101768.81;7377918;19;20014;-81
2022/10/30 13:05:37;;;;;;;17.42;8.07;;;;;;;18.86;100.00;101754.19;7370545;19;20102;-81
2022/10/30 13:08:16;;;;;;;18.25;7.97;;;;;;;18.93;100.00;101750.59;7374203;19;20147;-83
2022/10/30 13:10:51;;;;;;;18.65;8.75;;;;;;;19.01;100.00;101747.88;7369753;19;20021;-83
2022/10/30 13:13:25;;;;;;;18.40;8.23;;;;;;;19.03;100.00;101742.53;7372465;19;20022;-81
2022/10/30 13:15:58;;;;;;;13.30;7.40;;;;;;;19.02;100.00;101740.78;7371849;19;20114;-82
2022/10/30 13:18:30;;;;;;;16.08;8.02;;;;;;;18.97;100.00;101748.78;7370290;19;20017;-83
2022/10/30 13:21:21;;;;;;;19.83;10.45;;;;;;;18.89;100.00;101745.31;7370970;19;20011;-80
2022/10/30 13:23:56;;;;;;;18.73;8.68;;;;;;;18.90;100.00;101737.31;7377007;19;20018;-83
2022/10/30 13:26:37;;;;;;;18.13;8.50;;;;;;;19.06;100.00;101738.09;7376849;19;20489;-84
2022/10/30 13:29:15;;;;;;;20.70;8.80;;;;;;;19.04;100.00;101728.38;7383446;19;20502;-83
2022/10/30 13:31:56;;;;;;;19.98;8.18;;;;;;;19.16;100.00;101731.81;7383520;19;20010;-83
2022/10/30 13:34:38;;;;;;;20.17;9.30;;;;;;;19.22;100.00;101730.88;7385370;19;20126;-83
2022/10/30 13:37:16;;;;;;;20.38;9.25;;;;;;;19.43;100.00;101732.47;7378218;19;20046;-80
2022/10/30 13:40:01;;;;;;;19.60;8.85;;;;;;;19.37;100.00;101748.50;7380047;19;20010;-82
2022/10/30 13:42:43;;;;;;;19.42;9.10;;;;;;;19.32;100.00;101750.31;7373272;19;20388;-82
2022/10/30 14:04:54;;;;;;;13.85;6.82;;;;;;;18.40;100.00;101804.00;7366574;19;20007;-73
2022/10/30 14:07:34;;;;;;;15.27;7.03;;;;;;;18.29;100.00;101811.13;7370504;19;20086;-78
2022/10/30 14:10:12;;;;;;;11.85;5.53;;;;;;;18.27;100.00;101819.09;7367909;19;20539;-79
2022/10/30 14:20:23;;;;;;;11.77;5.10;;;;;;;17.65;100.00;101827.13;7367331;19;20022;-82
2022/10/30 14:23:12;;;;;;;11.38;5.07;;;;;;;17.64;100.00;101814.75;7369524;19;20015;-82
2022/10/30 14:25:45;;;;;;;11.85;4.85;;;;;;;17.57;100.00;101810.34;7373634;19;20011;-83
2022/10/30 14:28:21;;;;;;;11.15;5.30;;;;;;;17.44;100.00;101805.91;7372358;19;20006;-82
2022/10/30 14:31:04;;;;;;;10.55;5.07;;;;;;;17.52;100.00;101826.25;7372373;19;20022;-82